sensor_id;sensor_type;location;lat;lon;timestamp;pressure;altitude;pressure_sealevel;temperature;humidity
80712;BME280;70078;51.596;5.678;2024-01-30T00:01:47;102532.97;;;8.65;82.17
80712;BME280;70078;51.596;5.678;2024-01-30T00:04:12;102465.59;;;8.28;82.19
80712;BME280;70078;51.596;5.678;2024-01-30T00:06:38;102492.19;;;8.41;81.86
80712;BME280;70078;51.596;5.678;2024-01-30T00:09:03;102471.56;;;8.31;81.49
80712;BME280;70078;51.596;5.678;2024-01-30T00:11:30;102532.47;;;8.60;82.53
80712;BME280;70078;51.596;5.678;2024-01-30T00:13:56;102519.28;;;8.58;82.05
80712;BME280;70078;51.596;5.678;2024-01-30T00:16:25;102528.94;;;8.59;82.03
80712;BME280;70078;51.596;5.678;2024-01-30T00:18:51;102522.06;;;8.57;81.95
80712;BME280;70078;51.596;5.678;2024-01-30T00:21:17;102523.97;;;8.55;81.69
80712;BME280;70078;51.596;5.678;2024-01-30T00:23:43;102518.75;;;8.53;81.46
80712;BME280;70078;51.596;5.678;2024-01-30T00:26:08;102525.69;;;8.56;81.25
80712;BME280;70078;51.596;5.678;2024-01-30T00:28:33;102535.06;;;8.49;81.47
80712;BME280;70078;51.596;5.678;2024-01-30T00:30:59;102526.34;;;8.47;81.31
80712;BME280;70078;51.596;5.678;2024-01-30T00:33:24;102506.13;;;8.31;81.13
80712;BME280;70078;51.596;5.678;2024-01-30T00:35:49;102511.03;;;8.38;81.07
80712;BME280;70078;51.596;5.678;2024-01-30T00:38:14;102514.53;;;8.38;81.14
80712;BME280;70078;51.596;5.678;2024-01-30T00:40:40;102495.41;;;8.20;81.09
80712;BME280;70078;51.596;5.678;2024-01-30T00:43:05;102510.69;;;8.29;81.20
80712;BME280;70078;51.596;5.678;2024-01-30T00:45:30;102512.09;;;8.22;81.08
80712;BME280;70078;51.596;5.678;2024-01-30T00:47:56;102521.56;;;8.26;81.11
80712;BME280;70078;51.596;5.678;2024-01-30T00:50:21;102493.19;;;8.14;81.34
80712;BME280;70078;51.596;5.678;2024-01-30T00:52:47;102490.94;;;8.08;81.35
80712;BME280;70078;51.596;5.678;2024-01-30T00:55:12;102507.44;;;8.13;81.52
80712;BME280;70078;51.596;5.678;2024-01-30T00:57:38;102488.75;;;8.02;81.32
80712;BME280;70078;51.596;5.678;2024-01-30T01:00:03;102509.38;;;8.11;81.41
80712;BME280;70078;51.596;5.678;2024-01-30T01:02:30;102481.88;;;7.87;81.43
80712;BME280;70078;51.596;5.678;2024-01-30T01:04:55;102506.41;;;8.03;81.63
80712;BME280;70078;51.596;5.678;2024-01-30T01:07:20;102501.19;;;8.01;81.79
80712;BME280;70078;51.596;5.678;2024-01-30T01:09:46;102503.94;;;8.00;81.75
80712;BME280;70078;51.596;5.678;2024-01-30T01:12:11;102482.19;;;7.82;81.65
80712;BME280;70078;51.596;5.678;2024-01-30T01:14:36;102469.97;;;7.79;81.71
80712;BME280;70078;51.596;5.678;2024-01-30T01:17:01;102504.41;;;7.94;81.71
80712;BME280;70078;51.596;5.678;2024-01-30T01:19:27;102501.81;;;7.92;81.73
80712;BME280;70078;51.596;5.678;2024-01-30T01:21:52;102497.06;;;7.85;82.15
80712;BME280;70078;51.596;5.678;2024-01-30T01:24:18;102475.16;;;7.68;82.25
80712;BME280;70078;51.596;5.678;2024-01-30T01:26:43;102499.41;;;7.89;82.19
80712;BME280;70078;51.596;5.678;2024-01-30T01:29:09;102484.22;;;7.78;82.45
80712;BME280;70078;51.596;5.678;2024-01-30T01:31:37;102468.56;;;7.61;82.64
80712;BME280;70078;51.596;5.678;2024-01-30T01:34:09;102497.69;;;7.88;82.67
80712;BME280;70078;51.596;5.678;2024-01-30T01:36:34;102476.97;;;7.68;82.75
80712;BME280;70078;51.596;5.678;2024-01-30T01:38:59;102486.66;;;7.82;82.98
80712;BME280;70078;51.596;5.678;2024-01-30T01:41:25;102481.75;;;7.75;83.12
80712;BME280;70078;51.596;5.678;2024-01-30T01:43:54;102466.03;;;7.72;82.96
80712;BME280;70078;51.596;5.678;2024-01-30T01:46:19;102477.09;;;7.79;82.97
80712;BME280;70078;51.596;5.678;2024-01-30T01:48:45;102459.88;;;7.59;82.96
80712;BME280;70078;51.596;5.678;2024-01-30T01:51:10;102461.56;;;7.60;83.02
80712;BME280;70078;51.596;5.678;2024-01-30T01:53:35;102489.00;;;7.73;83.39
80712;BME280;70078;51.596;5.678;2024-01-30T01:56:01;102469.66;;;7.71;83.39
80712;BME280;70078;51.596;5.678;2024-01-30T01:58:26;102481.13;;;7.72;83.43
80712;BME280;70078;51.596;5.678;2024-01-30T02:00:54;102458.78;;;7.62;83.33
80712;BME280;70078;51.596;5.678;2024-01-30T02:03:19;102444.16;;;7.56;83.43
80712;BME280;70078;51.596;5.678;2024-01-30T02:05:46;102485.59;;;7.71;83.66
80712;BME280;70078;51.596;5.678;2024-01-30T02:08:12;102448.59;;;7.56;83.65
80712;BME280;70078;51.596;5.678;2024-01-30T02:10:37;102451.78;;;7.61;83.68
80712;BME280;70078;51.596;5.678;2024-01-30T02:13:02;102474.75;;;7.74;83.46
80712;BME280;70078;51.596;5.678;2024-01-30T02:15:28;102462.00;;;7.79;83.26
80712;BME280;70078;51.596;5.678;2024-01-30T02:17:54;102444.00;;;7.70;83.36
80712;BME280;70078;51.596;5.678;2024-01-30T02:20:20;102462.84;;;7.67;84.19
80712;BME280;70078;51.596;5.678;2024-01-30T02:22:46;102446.47;;;7.73;83.49
80712;BME280;70078;51.596;5.678;2024-01-30T02:25:12;102435.72;;;7.62;83.73
80712;BME280;70078;51.596;5.678;2024-01-30T02:27:37;102468.88;;;7.82;83.87
80712;BME280;70078;51.596;5.678;2024-01-30T02:30:02;102469.41;;;7.87;83.65
80712;BME280;70078;51.596;5.678;2024-01-30T02:32:28;102468.44;;;7.88;83.55
80712;BME280;70078;51.596;5.678;2024-01-30T02:34:53;102449.44;;;7.82;83.67
80712;BME280;70078;51.596;5.678;2024-01-30T02:37:18;102446.13;;;7.78;83.73
80712;BME280;70078;51.596;5.678;2024-01-30T02:39:44;102457.72;;;7.90;83.61
80712;BME280;70078;51.596;5.678;2024-01-30T02:42:09;102456.44;;;7.95;83.48
80712;BME280;70078;51.596;5.678;2024-01-30T02:44:34;102438.78;;;7.82;83.18
80712;BME280;70078;51.596;5.678;2024-01-30T02:47:00;102451.09;;;7.95;83.43
80712;BME280;70078;51.596;5.678;2024-01-30T02:49:25;102452.06;;;7.94;83.11
80712;BME280;70078;51.596;5.678;2024-01-30T02:51:51;102458.25;;;7.95;83.40
80712;BME280;70078;51.596;5.678;2024-01-30T02:54:16;102442.19;;;7.84;82.92
80712;BME280;70078;51.596;5.678;2024-01-30T02:56:42;102441.13;;;7.86;83.06
80712;BME280;70078;51.596;5.678;2024-01-30T02:59:07;102437.09;;;7.81;83.42
80712;BME280;70078;51.596;5.678;2024-01-30T03:01:32;102447.25;;;7.99;83.24
80712;BME280;70078;51.596;5.678;2024-01-30T03:03:57;102424.72;;;7.92;82.70
80712;BME280;70078;51.596;5.678;2024-01-30T03:06:23;102418.97;;;7.86;83.07
80712;BME280;70078;51.596;5.678;2024-01-30T03:08:48;102415.81;;;7.81;82.75
80712;BME280;70078;51.596;5.678;2024-01-30T03:11:13;102448.34;;;7.97;82.88
80712;BME280;70078;51.596;5.678;2024-01-30T03:13:39;102448.88;;;8.02;82.75
80712;BME280;70078;51.596;5.678;2024-01-30T03:16:04;102434.75;;;7.89;82.96
80712;BME280;70078;51.596;5.678;2024-01-30T03:18:30;102413.91;;;7.83;83.14
80712;BME280;70078;51.596;5.678;2024-01-30T03:20:55;102407.75;;;7.82;83.03
80712;BME280;70078;51.596;5.678;2024-01-30T03:23:20;102432.13;;;8.13;83.00
80712;BME280;70078;51.596;5.678;2024-01-30T03:25:46;102431.72;;;8.06;82.69
80712;BME280;70078;51.596;5.678;2024-01-30T03:28:11;102425.00;;;8.00;83.05
80712;BME280;70078;51.596;5.678;2024-01-30T03:30:36;102389.25;;;7.81;83.18
80712;BME280;70078;51.596;5.678;2024-01-30T03:33:02;102411.66;;;7.89;83.00
80712;BME280;70078;51.596;5.678;2024-01-30T03:35:27;102395.19;;;7.84;83.52
80712;BME280;70078;51.596;5.678;2024-01-30T03:37:52;102394.00;;;7.88;83.03
80712;BME280;70078;51.596;5.678;2024-01-30T03:40:18;102390.94;;;7.82;82.87
80712;BME280;70078;51.596;5.678;2024-01-30T03:42:43;102404.94;;;7.96;83.05
80712;BME280;70078;51.596;5.678;2024-01-30T03:45:09;102393.47;;;7.83;83.14
80712;BME280;70078;51.596;5.678;2024-01-30T03:47:34;102387.25;;;7.71;82.88
80712;BME280;70078;51.596;5.678;2024-01-30T03:49:59;102414.72;;;7.96;82.91
80712;BME280;70078;51.596;5.678;2024-01-30T03:52:25;102390.81;;;7.83;82.92
80712;BME280;70078;51.596;5.678;2024-01-30T03:54:50;102388.56;;;7.90;82.90
80712;BME280;70078;51.596;5.678;2024-01-30T03:57:15;102391.47;;;7.87;83.11
80712;BME280;70078;51.596;5.678;2024-01-30T03:59:44;102404.75;;;7.87;83.18
80712;BME280;70078;51.596;5.678;2024-01-30T04:02:12;102413.03;;;7.95;83.20
80712;BME280;70078;51.596;5.678;2024-01-30T04:04:37;102396.50;;;7.78;83.41
80712;BME280;70078;51.596;5.678;2024-01-30T04:07:03;102404.75;;;7.87;83.05
80712;BME280;70078;51.596;5.678;2024-01-30T04:09:28;102406.22;;;7.91;82.62
80712;BME280;70078;51.596;5.678;2024-01-30T04:11:54;102389.25;;;7.81;83.17
80712;BME280;70078;51.596;5.678;2024-01-30T04:14:19;102429.72;;;7.97;83.41
80712;BME280;70078;51.596;5.678;2024-01-30T04:16:44;102411.63;;;8.02;83.07
80712;BME280;70078;51.596;5.678;2024-01-30T04:19:09;102415.97;;;8.03;83.16
80712;BME280;70078;51.596;5.678;2024-01-30T04:21:35;102395.38;;;7.94;83.41
80712;BME280;70078;51.596;5.678;2024-01-30T04:24:00;102422.56;;;8.10;83.36
80712;BME280;70078;51.596;5.678;2024-01-30T04:26:25;102420.03;;;8.09;83.36
80712;BME280;70078;51.596;5.678;2024-01-30T04:28:50;102411.16;;;8.08;83.58
80712;BME280;70078;51.596;5.678;2024-01-30T04:31:16;102403.09;;;8.10;83.38
80712;BME280;70078;51.596;5.678;2024-01-30T04:33:41;102381.13;;;7.95;83.82
80712;BME280;70078;51.596;5.678;2024-01-30T04:36:08;102398.06;;;8.18;83.14
80712;BME280;70078;51.596;5.678;2024-01-30T04:38:35;102401.03;;;8.13;83.25
80712;BME280;70078;51.596;5.678;2024-01-30T04:41:00;102405.91;;;8.19;83.22
80712;BME280;70078;51.596;5.678;2024-01-30T04:43:25;102396.44;;;8.15;83.44
80712;BME280;70078;51.596;5.678;2024-01-30T04:45:51;102407.38;;;8.23;83.06
80712;BME280;70078;51.596;5.678;2024-01-30T04:48:17;102398.22;;;8.27;82.84
80712;BME280;70078;51.596;5.678;2024-01-30T04:50:42;102384.41;;;8.22;83.02
80712;BME280;70078;51.596;5.678;2024-01-30T04:53:07;102390.97;;;8.29;83.29
80712;BME280;70078;51.596;5.678;2024-01-30T04:55:33;102368.81;;;8.18;83.26
80712;BME280;70078;51.596;5.678;2024-01-30T04:57:58;102379.59;;;8.27;82.93
80712;BME280;70078;51.596;5.678;2024-01-30T05:00:23;102383.75;;;8.31;83.26
80712;BME280;70078;51.596;5.678;2024-01-30T05:02:48;102365.91;;;8.21;83.03
80712;BME280;70078;51.596;5.678;2024-01-30T05:05:14;102379.59;;;8.27;83.11
80712;BME280;70078;51.596;5.678;2024-01-30T05:07:41;102374.41;;;8.26;83.53
80712;BME280;70078;51.596;5.678;2024-01-30T05:10:09;102385.44;;;8.32;83.66
80712;BME280;70078;51.596;5.678;2024-01-30T05:12:34;102374.34;;;8.39;82.75
80712;BME280;70078;51.596;5.678;2024-01-30T05:15:00;102375.09;;;8.41;83.17
80712;BME280;70078;51.596;5.678;2024-01-30T05:17:25;102377.53;;;8.44;83.08
80712;BME280;70078;51.596;5.678;2024-01-30T05:19:50;102379.06;;;8.35;83.11
80712;BME280;70078;51.596;5.678;2024-01-30T05:22:15;102355.13;;;8.22;83.25
80712;BME280;70078;51.596;5.678;2024-01-30T05:24:43;102382.84;;;8.44;83.37
80712;BME280;70078;51.596;5.678;2024-01-30T05:27:08;102390.84;;;8.44;83.20
80712;BME280;70078;51.596;5.678;2024-01-30T05:29:33;102392.53;;;8.45;83.41
80712;BME280;70078;51.596;5.678;2024-01-30T05:31:58;102391.34;;;8.49;83.43
80712;BME280;70078;51.596;5.678;2024-01-30T05:34:24;102388.97;;;8.57;82.92
80712;BME280;70078;51.596;5.678;2024-01-30T05:36:49;102391.09;;;8.52;83.14
80712;BME280;70078;51.596;5.678;2024-01-30T05:39:14;102375.22;;;8.39;83.41
80712;BME280;70078;51.596;5.678;2024-01-30T05:41:40;102363.41;;;8.30;83.55
80712;BME280;70078;51.596;5.678;2024-01-30T05:44:05;102373.69;;;8.48;83.33
80712;BME280;70078;51.596;5.678;2024-01-30T05:46:30;102385.56;;;8.55;83.56
80712;BME280;70078;51.596;5.678;2024-01-30T05:48:55;102390.66;;;8.58;83.32
80712;BME280;70078;51.596;5.678;2024-01-30T05:51:21;102373.22;;;8.54;83.23
80712;BME280;70078;51.596;5.678;2024-01-30T05:53:46;102397.22;;;8.65;83.01
80712;BME280;70078;51.596;5.678;2024-01-30T05:56:11;102392.84;;;8.64;82.93
80712;BME280;70078;51.596;5.678;2024-01-30T05:58:36;102392.72;;;8.66;82.83
80712;BME280;70078;51.596;5.678;2024-01-30T06:01:06;102402.28;;;8.68;82.74
80712;BME280;70078;51.596;5.678;2024-01-30T06:03:31;102398.19;;;8.64;83.22
80712;BME280;70078;51.596;5.678;2024-01-30T06:05:57;102396.03;;;8.69;82.98
80712;BME280;70078;51.596;5.678;2024-01-30T06:08:22;102373.72;;;8.59;82.92
80712;BME280;70078;51.596;5.678;2024-01-30T06:10:48;102382.94;;;8.66;82.77
80712;BME280;70078;51.596;5.678;2024-01-30T06:13:14;102390.72;;;8.69;82.87
80712;BME280;70078;51.596;5.678;2024-01-30T06:15:39;102382.63;;;8.82;82.62
80712;BME280;70078;51.596;5.678;2024-01-30T06:18:05;102369.88;;;8.63;82.87
80712;BME280;70078;51.596;5.678;2024-01-30T06:20:30;102379.09;;;8.70;83.13
80712;BME280;70078;51.596;5.678;2024-01-30T06:22:55;102393.28;;;8.82;82.82
80712;BME280;70078;51.596;5.678;2024-01-30T06:25:21;102387.09;;;8.81;82.67
80712;BME280;70078;51.596;5.678;2024-01-30T06:27:46;102392.41;;;8.81;82.86
80712;BME280;70078;51.596;5.678;2024-01-30T06:30:11;102392.41;;;8.81;83.05
80712;BME280;70078;51.596;5.678;2024-01-30T06:32:37;102354.09;;;8.49;82.88
80712;BME280;70078;51.596;5.678;2024-01-30T06:35:02;102399.22;;;8.85;82.86
80712;BME280;70078;51.596;5.678;2024-01-30T06:37:28;102400.91;;;8.86;82.91
80712;BME280;70078;51.596;5.678;2024-01-30T06:39:53;102398.47;;;8.83;82.50
80712;BME280;70078;51.596;5.678;2024-01-30T06:42:19;102413.03;;;8.90;82.73
80712;BME280;70078;51.596;5.678;2024-01-30T06:44:44;102391.69;;;8.79;82.75
80712;BME280;70078;51.596;5.678;2024-01-30T06:47:10;102404.06;;;8.92;82.70
80712;BME280;70078;51.596;5.678;2024-01-30T06:49:35;102394.34;;;8.79;82.59
80712;BME280;70078;51.596;5.678;2024-01-30T06:52:05;102410.88;;;8.96;82.51
80712;BME280;70078;51.596;5.678;2024-01-30T06:54:30;102389.03;;;8.79;82.71
80712;BME280;70078;51.596;5.678;2024-01-30T06:56:56;102394.63;;;8.87;82.55
80712;BME280;70078;51.596;5.678;2024-01-30T06:59:21;102417.88;;;8.97;82.76
80712;BME280;70078;51.596;5.678;2024-01-30T07:01:46;102419.81;;;8.95;82.51
80712;BME280;70078;51.596;5.678;2024-01-30T07:04:12;102416.91;;;8.98;82.38
80712;BME280;70078;51.596;5.678;2024-01-30T07:06:37;102431.19;;;8.97;82.57
80712;BME280;70078;51.596;5.678;2024-01-30T07:09:02;102423.00;;;9.00;82.64
80712;BME280;70078;51.596;5.678;2024-01-30T07:11:28;102432.56;;;9.02;82.44
80712;BME280;70078;51.596;5.678;2024-01-30T07:13:54;102411.78;;;8.83;83.11
80712;BME280;70078;51.596;5.678;2024-01-30T07:16:19;102420.28;;;8.88;82.51
80712;BME280;70078;51.596;5.678;2024-01-30T07:18:44;102401.13;;;8.72;82.48
80712;BME280;70078;51.596;5.678;2024-01-30T07:21:10;102451.06;;;9.04;82.52
80712;BME280;70078;51.596;5.678;2024-01-30T07:23:35;102450.09;;;9.05;82.40
80712;BME280;70078;51.596;5.678;2024-01-30T07:26:04;102434.84;;;8.96;82.48
80712;BME280;70078;51.596;5.678;2024-01-30T07:28:30;102436.13;;;8.90;82.57
80712;BME280;70078;51.596;5.678;2024-01-30T07:30:56;102448.41;;;8.93;82.84
80712;BME280;70078;51.596;5.678;2024-01-30T07:33:21;102462.47;;;9.06;82.75
80712;BME280;70078;51.596;5.678;2024-01-30T07:35:46;102439.78;;;8.89;83.08
80712;BME280;70078;51.596;5.678;2024-01-30T07:38:11;102463.22;;;9.08;82.71
80712;BME280;70078;51.596;5.678;2024-01-30T07:40:37;102438.09;;;8.99;82.78
80712;BME280;70078;51.596;5.678;2024-01-30T07:43:02;102443.34;;;9.01;82.66
80712;BME280;70078;51.596;5.678;2024-01-30T07:45:28;102448.06;;;9.08;82.81
80712;BME280;70078;51.596;5.678;2024-01-30T07:47:57;102413.88;;;8.91;83.09
80712;BME280;70078;51.596;5.678;2024-01-30T07:50:22;102466.75;;;9.20;83.28
80712;BME280;70078;51.596;5.678;2024-01-30T07:52:48;102456.06;;;9.08;83.54
80712;BME280;70078;51.596;5.678;2024-01-30T07:55:16;102460.34;;;9.22;83.64
80712;BME280;70078;51.596;5.678;2024-01-30T07:57:41;102472.44;;;9.26;83.79
80712;BME280;70078;51.596;5.678;2024-01-30T08:00:08;102473.22;;;9.39;83.72
80712;BME280;70078;51.596;5.678;2024-01-30T08:02:33;102459.84;;;9.28;84.13
80712;BME280;70078;51.596;5.678;2024-01-30T08:04:58;102475.75;;;9.41;84.02
80712;BME280;70078;51.596;5.678;2024-01-30T08:07:24;102459.38;;;9.23;84.15
80712;BME280;70078;51.596;5.678;2024-01-30T08:09:49;102480.63;;;9.47;84.21
80712;BME280;70078;51.596;5.678;2024-01-30T08:12:15;102477.94;;;9.47;84.17
80712;BME280;70078;51.596;5.678;2024-01-30T08:14:40;102485.84;;;9.60;84.23
80712;BME280;70078;51.596;5.678;2024-01-30T08:17:06;102481.84;;;9.65;84.03
80712;BME280;70078;51.596;5.678;2024-01-30T08:19:35;102465.47;;;9.59;83.67
80712;BME280;70078;51.596;5.678;2024-01-30T08:22:00;102444.00;;;9.49;83.81
80712;BME280;70078;51.596;5.678;2024-01-30T08:24:26;102445.13;;;9.47;83.69
80712;BME280;70078;51.596;5.678;2024-01-30T08:26:51;102487.31;;;9.86;83.71
80712;BME280;70078;51.596;5.678;2024-01-30T08:29:16;102470.09;;;9.79;83.00
80712;BME280;70078;51.596;5.678;2024-01-30T08:31:41;102488.78;;;9.90;83.08
80712;BME280;70078;51.596;5.678;2024-01-30T08:34:07;102450.94;;;9.74;83.08
80712;BME280;70078;51.596;5.678;2024-01-30T08:36:32;102432.63;;;9.58;83.33
80712;BME280;70078;51.596;5.678;2024-01-30T08:38:58;102489.50;;;9.92;82.82
80712;BME280;70078;51.596;5.678;2024-01-30T08:41:23;102442.09;;;9.62;83.17
80712;BME280;70078;51.596;5.678;2024-01-30T08:43:49;102489.47;;;10.04;82.83
80712;BME280;70078;51.596;5.678;2024-01-30T08:46:18;102479.31;;;9.86;82.65
80712;BME280;70078;51.596;5.678;2024-01-30T08:48:44;102478.56;;;9.95;82.98
80712;BME280;70078;51.596;5.678;2024-01-30T08:51:10;102460.38;;;9.89;82.61
80712;BME280;70078;51.596;5.678;2024-01-30T08:53:36;102497.22;;;10.18;82.45
80712;BME280;70078;51.596;5.678;2024-01-30T08:56:02;102454.69;;;9.94;82.25
80712;BME280;70078;51.596;5.678;2024-01-30T08:58:27;102492.16;;;10.26;82.24
80712;BME280;70078;51.596;5.678;2024-01-30T09:00:53;102482.44;;;10.25;82.26
80712;BME280;70078;51.596;5.678;2024-01-30T09:03:18;102494.94;;;10.36;82.03
80712;BME280;70078;51.596;5.678;2024-01-30T09:05:44;102476.75;;;10.30;82.33
80712;BME280;70078;51.596;5.678;2024-01-30T09:08:09;102463.63;;;10.26;81.95
80712;BME280;70078;51.596;5.678;2024-01-30T09:10:35;102494.78;;;10.48;82.10
80712;BME280;70078;51.596;5.678;2024-01-30T09:13:00;102438.28;;;10.21;81.90
80712;BME280;70078;51.596;5.678;2024-01-30T09:15:26;102465.22;;;10.29;82.16
80712;BME280;70078;51.596;5.678;2024-01-30T09:17:58;102464.72;;;10.35;81.87
80712;BME280;70078;51.596;5.678;2024-01-30T09:20:28;102506.75;;;10.65;81.59
80712;BME280;70078;51.596;5.678;2024-01-30T09:22:56;102503.00;;;10.68;81.75
80712;BME280;70078;51.596;5.678;2024-01-30T09:25:22;102453.94;;;10.37;81.33
80712;BME280;70078;51.596;5.678;2024-01-30T09:27:48;102516.09;;;10.71;81.95
80712;BME280;70078;51.596;5.678;2024-01-30T09:30:14;102452.72;;;10.30;81.56
80712;BME280;70078;51.596;5.678;2024-01-30T09:32:40;102511.97;;;10.67;81.35
80712;BME280;70078;51.596;5.678;2024-01-30T09:35:05;102514.13;;;10.73;81.37
80712;BME280;70078;51.596;5.678;2024-01-30T09:37:31;102487.84;;;10.57;81.21
80712;BME280;70078;51.596;5.678;2024-01-30T09:39:56;102512.66;;;10.80;81.73
80712;BME280;70078;51.596;5.678;2024-01-30T09:42:33;102504.94;;;10.66;81.39
80712;BME280;70078;51.596;5.678;2024-01-30T09:45:01;102501.75;;;10.72;81.51
80712;BME280;70078;51.596;5.678;2024-01-30T09:47:26;102468.78;;;10.62;80.98
80712;BME280;70078;51.596;5.678;2024-01-30T09:49:52;102498.84;;;10.75;81.33
80712;BME280;70078;51.596;5.678;2024-01-30T09:52:17;102537.38;;;10.93;80.94
80712;BME280;70078;51.596;5.678;2024-01-30T09:54:43;102530.34;;;10.92;81.61
80712;BME280;70078;51.596;5.678;2024-01-30T09:57:11;102525.47;;;10.97;81.61
80712;BME280;70078;51.596;5.678;2024-01-30T09:59:36;102533.56;;;11.07;81.24
80712;BME280;70078;51.596;5.678;2024-01-30T10:02:02;102530.75;;;11.08;81.24
80712;BME280;70078;51.596;5.678;2024-01-30T10:04:29;102537.06;;;11.19;81.13
80712;BME280;70078;51.596;5.678;2024-01-30T10:06:54;102533.97;;;11.23;81.48
80712;BME280;70078;51.596;5.678;2024-01-30T10:09:19;102536.72;;;11.33;80.68
80712;BME280;70078;51.596;5.678;2024-01-30T10:11:45;102505.22;;;11.16;81.10
80712;BME280;70078;51.596;5.678;2024-01-30T10:14:10;102544.50;;;11.36;81.46
80712;BME280;70078;51.596;5.678;2024-01-30T10:16:35;102537.25;;;11.48;80.67
80712;BME280;70078;51.596;5.678;2024-01-30T10:19:01;102538.56;;;11.53;80.94
80712;BME280;70078;51.596;5.678;2024-01-30T10:21:26;102516.50;;;11.40;80.50
80712;BME280;70078;51.596;5.678;2024-01-30T10:23:52;102538.75;;;11.61;80.56
80712;BME280;70078;51.596;5.678;2024-01-30T10:26:19;102517.00;;;11.55;80.77
80712;BME280;70078;51.596;5.678;2024-01-30T10:28:46;102499.03;;;11.36;80.30
80712;BME280;70078;51.596;5.678;2024-01-30T10:31:18;102498.94;;;11.47;80.26
80712;BME280;70078;51.596;5.678;2024-01-30T10:33:44;102555.06;;;11.79;80.33
80712;BME280;70078;51.596;5.678;2024-01-30T10:36:13;102559.31;;;11.82;79.89
80712;BME280;70078;51.596;5.678;2024-01-30T10:38:42;102529.50;;;11.65;79.94
80712;BME280;70078;51.596;5.678;2024-01-30T10:41:08;102537.50;;;11.65;80.31
80712;BME280;70078;51.596;5.678;2024-01-30T10:43:40;102549.78;;;11.89;79.66
80712;BME280;70078;51.596;5.678;2024-01-30T10:46:10;102521.47;;;11.65;80.47
80712;BME280;70078;51.596;5.678;2024-01-30T10:48:43;102503.53;;;11.56;80.08
80712;BME280;70078;51.596;5.678;2024-01-30T10:51:12;102522.63;;;11.73;79.66
80712;BME280;70078;51.596;5.678;2024-01-30T10:53:39;102531.91;;;11.89;79.67
80712;BME280;70078;51.596;5.678;2024-01-30T10:56:04;102544.97;;;12.13;79.63
80712;BME280;70078;51.596;5.678;2024-01-30T10:58:35;102512.09;;;12.02;78.80
80712;BME280;70078;51.596;5.678;2024-01-30T11:01:04;102511.06;;;11.93;79.11
80712;BME280;70078;51.596;5.678;2024-01-30T11:03:30;102521.38;;;11.98;78.34
80712;BME280;70078;51.596;5.678;2024-01-30T11:05:59;102539.75;;;12.12;78.96
80712;BME280;70078;51.596;5.678;2024-01-30T11:08:28;102512.50;;;11.97;78.67
80712;BME280;70078;51.596;5.678;2024-01-30T11:10:58;102515.88;;;11.99;78.75
80712;BME280;70078;51.596;5.678;2024-01-30T11:13:30;102490.22;;;11.97;78.94
80712;BME280;70078;51.596;5.678;2024-01-30T11:16:04;102509.69;;;12.08;78.31
80712;BME280;70078;51.596;5.678;2024-01-30T11:18:32;102503.09;;;12.12;78.94
80712;BME280;70078;51.596;5.678;2024-01-30T11:20:59;102502.72;;;12.17;77.94
80712;BME280;70078;51.596;5.678;2024-01-30T11:23:27;102507.19;;;12.16;78.28
80712;BME280;70078;51.596;5.678;2024-01-30T11:25:56;102533.91;;;12.37;78.28
80712;BME280;70078;51.596;5.678;2024-01-30T11:28:32;102527.56;;;12.38;77.71
80712;BME280;70078;51.596;5.678;2024-01-30T11:31:05;102540.09;;;12.38;77.99
80712;BME280;70078;51.596;5.678;2024-01-30T11:33:35;102491.41;;;12.13;78.15
80712;BME280;70078;51.596;5.678;2024-01-30T11:36:01;102506.34;;;12.16;77.61
80712;BME280;70078;51.596;5.678;2024-01-30T11:38:32;102497.06;;;12.10;77.75
80712;BME280;70078;51.596;5.678;2024-01-30T11:41:00;102489.13;;;12.09;78.25
80712;BME280;70078;51.596;5.678;2024-01-30T11:43:26;102483.09;;;12.16;77.69
80712;BME280;70078;51.596;5.678;2024-01-30T11:45:51;102540.56;;;12.53;78.64
80712;BME280;70078;51.596;5.678;2024-01-30T11:48:20;102513.69;;;12.73;77.20
80712;BME280;70078;51.596;5.678;2024-01-30T11:50:54;102492.25;;;12.73;75.23
80712;BME280;70078;51.596;5.678;2024-01-30T11:53:19;102547.72;;;13.02;75.19
80712;BME280;70078;51.596;5.678;2024-01-30T11:55:51;102506.63;;;12.63;74.75
80712;BME280;70078;51.596;5.678;2024-01-30T11:58:18;102491.81;;;12.68;74.01
80712;BME280;70078;51.596;5.678;2024-01-30T12:00:52;102538.38;;;12.87;74.17
80712;BME280;70078;51.596;5.678;2024-01-30T12:03:19;102537.09;;;12.71;73.68
80712;BME280;70078;51.596;5.678;2024-01-30T12:05:44;102547.97;;;12.80;74.23
80712;BME280;70078;51.596;5.678;2024-01-30T12:08:15;102506.97;;;12.39;74.20
80712;BME280;70078;51.596;5.678;2024-01-30T12:10:41;102545.97;;;12.62;74.30
80712;BME280;70078;51.596;5.678;2024-01-30T12:13:07;102553.19;;;12.71;74.27
80712;BME280;70078;51.596;5.678;2024-01-30T12:15:33;102506.97;;;12.39;75.09
80712;BME280;70078;51.596;5.678;2024-01-30T12:18:05;102514.31;;;12.46;73.20
80712;BME280;70078;51.596;5.678;2024-01-30T12:20:31;102554.72;;;12.64;71.86
80712;BME280;70078;51.596;5.678;2024-01-30T12:22:56;102550.72;;;12.49;71.74
80712;BME280;70078;51.596;5.678;2024-01-30T12:25:22;102557.78;;;12.50;71.66
80712;BME280;70078;51.596;5.678;2024-01-30T12:27:49;102535.59;;;12.38;70.49
80712;BME280;70078;51.596;5.678;2024-01-30T12:30:16;102524.13;;;12.17;71.48
80712;BME280;70078;51.596;5.678;2024-01-30T12:32:43;102563.22;;;12.39;71.36
80712;BME280;70078;51.596;5.678;2024-01-30T12:35:21;102515.91;;;12.09;71.73
80712;BME280;70078;51.596;5.678;2024-01-30T12:37:49;102537.59;;;12.06;71.26
80712;BME280;70078;51.596;5.678;2024-01-30T12:40:15;102536.41;;;11.89;71.94
80712;BME280;70078;51.596;5.678;2024-01-30T12:42:51;102546.59;;;11.95;70.81
80712;BME280;70078;51.596;5.678;2024-01-30T12:45:20;102556.72;;;12.01;70.93
80712;BME280;70078;51.596;5.678;2024-01-30T12:47:47;102550.94;;;11.96;68.93
80712;BME280;70078;51.596;5.678;2024-01-30T12:50:13;102583.25;;;12.04;68.43
80712;BME280;70078;51.596;5.678;2024-01-30T12:52:42;102546.41;;;11.87;69.40